Time;durP1;ratioP1;P1;durP2;ratioP2;P2;SDS_P1;SDS_P2;PMS_P1;PMS_P2;Temp;Humidity;BMP_temperature;BMP_pressure;BME280_temperature;BME280_humidity;BME280_pressure;Samples;Min_cycle;Max_cycle;Signal;HPM_P1;HPM_P2
2023/04/18 00:00:23;;;;;;;7.05;4.13;;;7.20;99.90;;;;;;5093202;28;20059;-49
2023/04/18 00:02:52;;;;;;;;;;;7.20;99.90;;;;;;5093170;28;20052;-49
2023/04/18 00:05:20;;;;;;;4.85;3.72;;;7.20;99.90;;;;;;5093659;28;20649;-47
2023/04/18 00:07:47;;;;;;;8.52;4.00;;;7.10;99.90;;;;;;5086410;28;20050;-48
2023/04/18 00:10:15;;;;;;;5.60;4.63;;;7.20;99.90;;;;;;5093123;28;20068;-47
2023/04/18 00:12:42;;;;;;;5.45;3.92;;;7.20;99.90;;;;;;5093146;28;20104;-48
2023/04/18 00:15:10;;;;;;;8.15;4.88;;;7.20;99.90;;;;;;5093382;28;20048;-47
2023/04/18 00:17:37;;;;;;;7.28;4.60;;;7.20;99.90;;;;;;5079069;28;20059;-48
2023/04/18 00:20:08;;;;;;;7.15;4.40;;;7.20;99.90;;;;;;5086264;28;20442;-48
2023/04/18 00:22:35;;;;;;;7.97;4.47;;;7.20;99.90;;;;;;5105619;28;20399;-47
2023/04/18 00:25:02;;;;;;;8.02;4.90;;;7.20;99.90;;;;;;5098408;28;20036;-47
2023/04/18 00:27:28;;;;;;;7.78;5.10;;;7.20;99.90;;;;;;5108558;28;20036;-48
2023/04/18 00:29:55;;;;;;;9.57;4.82;;;7.20;99.90;;;;;;5092134;28;20068;-47
2023/04/18 00:32:21;;;;;;;8.25;5.20;;;7.20;99.90;;;;;;5091464;28;20070;-48
2023/04/18 00:34:48;;;;;;;6.30;4.50;;;7.20;99.90;;;;;;5086826;28;20040;-48
2023/04/18 00:37:18;;;;;;;6.57;4.10;;;7.20;99.90;;;;;;5091685;28;20046;-48
2023/04/18 00:39:44;;;;;;;8.02;4.78;;;7.20;99.90;;;;;;5074365;28;20052;-47
2023/04/18 00:42:11;;;;;;;6.93;4.70;;;7.20;99.90;;;;;;5093008;28;20081;-47
2023/04/18 00:44:38;;;;;;;8.77;5.13;;;7.20;99.90;;;;;;5089020;28;20366;-47
2023/04/18 00:47:05;;;;;;;7.55;5.03;;;7.20;99.90;;;;;;5074354;28;20048;-47
2023/04/18 00:49:32;;;;;;;5.18;4.00;;;7.20;99.90;;;;;;5104885;28;20495;-50
2023/04/18 00:51:59;;;;;;;7.43;4.20;;;7.10;99.90;;;;;;5113207;28;20043;-47
2023/04/18 00:54:26;;;;;;;7.05;4.43;;;7.10;99.90;;;;;;5111436;28;20507;-47
2023/04/18 00:56:53;;;;;;;7.10;4.55;;;7.10;99.90;;;;;;5092566;28;20554;-47
2023/04/18 00:59:21;;;;;;;7.47;4.80;;;7.10;99.90;;;;;;5073964;28;20485;-47
2023/04/18 01:01:47;;;;;;;9.95;5.00;;;7.00;99.90;;;;;;5085797;28;20035;-49
2023/04/18 01:04:14;;;;;;;7.45;4.50;;;7.00;99.90;;;;;;5074134;28;20090;-47
2023/04/18 01:06:42;;;;;;;;;;;7.00;99.90;;;;;;5074046;28;20046;-48
2023/04/18 01:09:10;;;;;;;6.93;4.13;;;7.10;99.90;;;;;;5091895;28;20018;-47
2023/04/18 01:11:36;;;;;;;8.48;4.72;;;7.00;99.90;;;;;;5072079;28;20040;-48
2023/04/18 01:14:05;;;;;;;6.18;4.28;;;7.00;99.90;;;;;;5075537;28;20093;-47
2023/04/18 01:16:35;;;;;;;8.27;4.97;;;7.00;99.90;;;;;;5087984;28;20042;-49
2023/04/18 01:19:03;;;;;;;10.15;5.15;;;7.00;99.90;;;;;;5091921;28;20050;-47
2023/04/18 01:21:32;;;;;;;8.30;5.00;;;7.10;99.90;;;;;;5074538;28;20078;-47
2023/04/18 01:24:08;;;;;;;7.90;4.95;;;7.10;99.90;;;;;;5073542;28;20110;-47
2023/04/18 01:26:35;;;;;;;8.40;4.93;;;7.10;99.90;;;;;;5082848;28;20101;-47
2023/04/18 01:29:04;;;;;;;6.88;4.75;;;7.10;99.90;;;;;;5072285;28;20048;-47
2023/04/18 01:31:35;;;;;;;;;;;7.20;99.90;;;;;;5074486;28;20047;-47
2023/04/18 01:34:02;;;;;;;8.50;4.40;;;7.10;99.90;;;;;;5091970;28;20046;-48
2023/04/18 01:36:30;;;;;;;10.65;5.00;;;7.20;99.90;;;;;;5073990;28;20086;-47
2023/04/18 01:38:58;;;;;;;7.85;4.93;;;7.10;99.90;;;;;;5071648;28;20040;-47
2023/04/18 01:41:26;;;;;;;7.93;4.40;;;7.10;99.90;;;;;;5092045;28;20097;-48
2023/04/18 01:43:52;;;;;;;12.07;4.85;;;7.10;99.90;;;;;;5073559;28;20097;-48
2023/04/18 01:46:19;;;;;;;7.05;5.20;;;7.10;99.90;;;;;;5090424;28;20089;-47
2023/04/18 01:48:46;;;;;;;6.35;4.45;;;7.00;99.90;;;;;;5085940;28;20434;-48
2023/04/18 01:51:12;;;;;;;6.38;4.32;;;7.10;99.90;;;;;;5091364;28;20039;-47
2023/04/18 01:53:40;;;;;;;6.78;4.50;;;7.00;99.90;;;;;;5091709;28;20079;-47
2023/04/18 01:56:09;;;;;;;6.20;4.38;;;7.00;99.90;;;;;;5085959;28;20146;-47
2023/04/18 01:58:36;;;;;;;6.65;4.72;;;7.00;99.90;;;;;;5073283;28;20389;-47
2023/04/18 02:01:03;;;;;;;6.57;4.65;;;6.90;99.90;;;;;;5071884;28;20051;-47
2023/04/18 02:03:29;;;;;;;7.47;4.90;;;6.90;99.90;;;;;;5091388;28;20534;-47
2023/04/18 02:05:56;;;;;;;6.75;4.65;;;6.90;99.90;;;;;;5090616;28;20123;-47
2023/04/18 02:08:23;;;;;;;7.68;5.05;;;6.90;99.90;;;;;;5073643;28;20044;-47
2023/04/18 02:10:50;;;;;;;7.03;4.85;;;6.90;99.90;;;;;;5084010;28;20377;-47
2023/04/18 02:13:17;;;;;;;7.20;4.60;;;7.00;99.90;;;;;;5073471;28;20420;-47
2023/04/18 02:15:44;;;;;;;6.18;4.30;;;7.00;99.90;;;;;;5089497;28;20286;-47
2023/04/18 02:18:14;;;;;;;7.40;4.75;;;7.00;99.90;;;;;;5073002;28;20059;-47
2023/04/18 02:20:41;;;;;;;7.32;5.10;;;7.00;99.90;;;;;;5071096;28;20040;-47
2023/04/18 02:23:07;;;;;;;6.40;4.88;;;7.00;99.90;;;;;;5091342;28;20122;-48
2023/04/18 02:25:34;;;;;;;8.00;5.40;;;7.00;99.90;;;;;;5072196;28;20064;-47
2023/04/18 02:28:01;;;;;;;9.27;5.22;;;7.00;99.90;;;;;;5071868;28;20040;-47
2023/04/18 02:30:30;;;;;;;7.28;5.13;;;7.10;99.90;;;;;;5085591;28;20044;-47
2023/04/18 02:32:56;;;;;;;8.45;5.13;;;7.10;99.90;;;;;;5090136;28;20040;-48
2023/04/18 02:35:24;;;;;;;11.23;4.82;;;7.10;99.90;;;;;;5091010;28;20052;-47
2023/04/18 02:37:51;;;;;;;9.40;4.93;;;7.10;99.90;;;;;;5083452;28;20045;-47
2023/04/18 02:40:18;;;;;;;7.78;4.90;;;7.10;99.90;;;;;;5090929;28;20511;-47
2023/04/18 02:42:45;;;;;;;7.18;4.68;;;7.10;99.90;;;;;;5089603;28;20040;-47
2023/04/18 02:45:14;;;;;;;7.10;4.88;;;7.10;99.90;;;;;;5073130;28;20044;-47
2023/04/18 02:47:41;;;;;;;6.47;4.22;;;7.10;99.90;;;;;;5082811;28;20036;-47
2023/04/18 02:50:20;;;;;;;7.05;4.57;;;7.00;99.90;;;;;;5089622;28;20044;-47
2023/04/18 02:52:47;;;;;;;8.82;5.35;;;7.00;99.90;;;;;;5072765;28;20146;-47
2023/04/18 02:55:16;;;;;;;11.45;5.40;;;7.00;99.90;;;;;;5072025;28;20062;-48
2023/04/18 02:57:44;;;;;;;7.22;5.15;;;7.00;99.90;;;;;;5085825;28;20097;-48
2023/04/18 03:00:29;;;;;;;10.98;5.40;;;7.00;99.90;;;;;;5106261;28;20556;-48
2023/04/18 03:03:15;;;;;;;8.80;5.75;;;7.10;99.90;;;;;;5100764;28;20055;-47
2023/04/18 03:05:53;;;;;;;11.07;6.38;;;7.10;99.90;;;;;;5068264;28;20089;-48
2023/04/18 03:08:20;;;;;;;10.40;6.57;;;7.10;99.90;;;;;;5071550;28;20455;-48
2023/04/18 03:10:47;;;;;;;11.05;6.70;;;7.10;99.90;;;;;;5090348;28;20528;-47
2023/04/18 03:13:16;;;;;;;7.47;4.95;;;7.10;99.90;;;;;;5078374;22;20044;-48
2023/04/18 03:15:43;;;;;;;12.57;6.30;;;7.10;99.90;;;;;;5063166;28;20044;-48
2023/04/18 03:18:11;;;;;;;9.15;5.15;;;7.10;99.90;;;;;;5051219;28;20041;-48
2023/04/18 03:20:40;;;;;;;8.85;5.53;;;7.10;99.90;;;;;;5068301;28;20044;-48
2023/04/18 03:23:07;;;;;;;9.02;5.95;;;7.10;99.90;;;;;;5069467;28;20040;-48
2023/04/18 03:25:34;;;;;;;8.07;5.68;;;7.10;99.90;;;;;;5049301;28;20029;-49
2023/04/18 03:28:02;;;;;;;8.48;5.80;;;7.10;99.90;;;;;;5047861;28;20037;-48
2023/04/18 03:30:29;;;;;;;8.15;5.47;;;7.10;99.90;;;;;;5042090;28;20055;-47
2023/04/18 03:32:58;;;;;;;10.65;6.38;;;7.10;99.90;;;;;;5044715;28;20037;-49
2023/04/18 03:35:25;;;;;;;8.55;5.60;;;7.10;99.90;;;;;;5056856;28;20037;-47
2023/04/18 03:37:51;;;;;;;10.25;6.60;;;7.20;99.90;;;;;;5050565;28;20051;-48
2023/04/18 03:40:23;;;;;;;9.13;6.35;;;7.10;99.90;;;;;;5045601;28;20102;-48
2023/04/18 03:42:53;;;;;;;10.30;7.18;;;7.10;99.90;;;;;;5052103;28;20547;-49
2023/04/18 03:45:19;;;;;;;12.02;8.35;;;7.10;99.90;;;;;;5053720;28;20397;-49
2023/04/18 03:47:46;;;;;;;13.93;8.25;;;7.20;99.90;;;;;;5051086;28;20041;-47
2023/04/18 03:50:14;;;;;;;17.70;7.38;;;7.20;99.90;;;;;;5042514;28;20130;-47
2023/04/18 03:52:43;;;;;;;14.30;7.45;;;7.20;99.90;;;;;;5043579;28;20049;-48
2023/04/18 03:55:10;;;;;;;;;;;7.20;99.90;;;;;;5060309;28;20052;-48
2023/04/18 03:57:37;;;;;;;11.77;6.30;;;7.20;99.90;;;;;;5054945;28;19921;-48
2023/04/18 04:00:09;;;;;;;10.60;6.25;;;7.20;99.90;;;;;;5048979;28;20048;-48
2023/04/18 04:02:48;;;;;;;9.82;6.15;;;7.10;99.90;;;;;;5057741;28;20053;-48
2023/04/18 04:05:19;;;;;;;10.63;5.78;;;7.20;99.90;;;;;;5050074;28;20075;-48
2023/04/18 04:07:46;;;;;;;;;;;7.10;99.90;;;;;;5060729;28;20056;-48
2023/04/18 04:10:13;;;;;;;7.55;5.20;;;7.10;99.90;;;;;;5052750;28;19925;-48
2023/04/18 04:12:40;;;;;;;10.07;6.03;;;7.10;99.90;;;;;;5051441;28;20041;-48
2023/04/18 04:15:07;;;;;;;8.48;6.03;;;7.10;99.90;;;;;;5060874;28;20409;-49
2023/04/18 04:17:37;;;;;;;11.45;5.95;;;7.10;99.90;;;;;;5055048;28;20064;-48
2023/04/18 04:20:06;;;;;;;9.07;5.63;;;7.10;99.90;;;;;;5052683;28;20064;-48
2023/04/18 04:22:33;;;;;;;11.27;5.53;;;7.10;99.90;;;;;;5052209;28;20469;-48
2023/04/18 04:25:01;;;;;;;9.30;6.07;;;7.10;99.90;;;;;;5043675;28;20040;-48
2023/04/18 04:27:35;;;;;;;8.75;5.50;;;7.10;99.90;;;;;;5038954;28;20040;-49
2023/04/18 04:30:06;;;;;;;8.20;5.68;;;7.10;99.90;;;;;;5060009;28;20048;-48
2023/04/18 04:32:34;;;;;;;8.45;5.63;;;7.10;99.90;;;;;;5043408;28;20341;-48
2023/04/18 04:35:01;;;;;;;9.55;6.25;;;7.10;99.90;;;;;;5038868;28;20383;-48
2023/04/18 04:37:28;;;;;;;12.60;6.90;;;7.10;99.90;;;;;;5052505;28;20044;-47
2023/04/18 04:40:21;;;;;;;9.15;5.95;;;7.10;99.90;;;;;;5050640;28;20060;-48
2023/04/18 04:42:53;;;;;;;11.60;6.57;;;7.10;99.90;;;;;;5050975;28;20076;-48
2023/04/18 04:45:30;;;;;;;8.23;5.95;;;7.10;99.90;;;;;;5042595;28;20044;-48
2023/04/18 04:47:56;;;;;;;11.48;6.35;;;7.10;99.90;;;;;;5056167;28;20041;-47
2023/04/18 04:50:24;;;;;;;13.98;6.35;;;7.10;99.90;;;;;;5047862;28;20068;-48
2023/04/18 04:52:51;;;;;;;11.00;7.10;;;7.10;99.90;;;;;;5047615;28;20567;-48
2023/04/18 04:55:17;;;;;;;13.73;7.20;;;7.10;99.90;;;;;;5050916;28;20052;-48
2023/04/18 04:57:46;;;;;;;12.93;7.72;;;7.10;99.90;;;;;;5050509;28;20040;-47
2023/04/18 05:00:29;;;;;;;11.02;6.93;;;7.10;99.90;;;;;;5056918;28;20044;-47
2023/04/18 05:02:58;;;;;;;13.90;7.93;;;7.10;99.90;;;;;;5042782;28;20120;-47
2023/04/18 05:05:26;;;;;;;12.63;7.82;;;7.10;99.90;;;;;;5041318;28;20029;-47
2023/04/18 05:07:53;;;;;;;14.63;8.35;;;7.10;99.90;;;;;;5051576;28;20040;-48
2023/04/18 05:10:20;;;;;;;15.02;9.18;;;7.10;99.90;;;;;;5053673;28;20545;-47
2023/04/18 05:12:47;;;;;;;15.38;8.52;;;7.20;99.90;;;;;;5063384;28;20551;-48
2023/04/18 05:15:17;;;;;;;16.55;9.38;;;7.20;99.90;;;;;;5071747;28;20048;-47
2023/04/18 05:17:44;;;;;;;13.85;9.15;;;7.30;99.90;;;;;;5070888;28;20040;-47
2023/04/18 05:20:11;;;;;;;14.27;8.45;;;7.20;99.90;;;;;;5054597;28;20048;-47
2023/04/18 05:22:38;;;;;;;16.23;8.90;;;7.30;99.90;;;;;;5065339;28;20068;-47
2023/04/18 05:25:05;;;;;;;13.93;9.23;;;7.20;99.90;;;;;;5070155;28;20064;-47
2023/04/18 05:27:31;;;;;;;14.60;9.30;;;7.30;99.90;;;;;;5064624;28;20033;-47
2023/04/18 05:29:58;;;;;;;13.35;9.02;;;7.40;99.90;;;;;;5070742;28;20064;-47
2023/04/18 05:32:25;;;;;;;15.77;10.13;;;7.40;99.90;;;;;;5062742;28;20124;-47
2023/04/18 05:34:51;;;;;;;16.98;8.75;;;7.50;99.90;;;;;;5054243;28;20041;-48
2023/04/18 05:37:18;;;;;;;14.55;8.90;;;7.50;99.90;;;;;;5047761;28;20080;-48
2023/04/18 05:39:45;;;;;;;16.20;9.50;;;7.60;99.90;;;;;;5049374;28;20037;-48
2023/04/18 05:42:11;;;;;;;16.60;8.40;;;7.60;99.90;;;;;;5070809;28;20087;-48
2023/04/18 05:44:38;;;;;;;13.85;9.02;;;7.70;99.90;;;;;;5070296;28;20044;-48
2023/04/18 05:47:05;;;;;;;14.38;9.35;;;7.80;99.90;;;;;;5070548;28;20508;-47
2023/04/18 05:49:32;;;;;;;13.20;7.95;;;7.90;99.90;;;;;;5059467;28;20037;-47
2023/04/18 05:51:59;;;;;;;11.38;7.95;;;8.10;99.90;;;;;;5071234;28;20072;-47
2023/04/18 05:54:26;;;;;;;12.68;8.00;;;8.20;99.90;;;;;;5071300;28;20078;-48
2023/04/18 05:56:54;;;;;;;9.88;6.45;;;8.30;99.90;;;;;;5063055;28;20502;-47
2023/04/18 05:59:20;;;;;;;10.18;6.47;;;8.40;99.90;;;;;;5061406;28;20499;-48
2023/04/18 06:01:48;;;;;;;11.50;6.53;;;8.50;99.90;;;;;;5071301;28;20037;-47
2023/04/18 06:04:15;;;;;;;10.35;6.65;;;8.70;99.90;;;;;;5064234;28;20036;-48
2023/04/18 06:06:42;;;;;;;10.18;6.45;;;8.80;99.90;;;;;;5070931;28;20076;-49
2023/04/18 06:09:09;;;;;;;10.48;6.80;;;8.80;99.90;;;;;;5070315;28;20045;-49
2023/04/18 06:11:36;;;;;;;10.57;7.28;;;8.80;99.90;;;;;;5065528;28;20512;-47
2023/04/18 06:14:03;;;;;;;9.20;6.80;;;8.90;99.90;;;;;;5068834;28;20033;-47
2023/04/18 06:16:30;;;;;;;8.50;5.78;;;9.00;99.90;;;;;;5071029;28;20051;-48
2023/04/18 06:18:57;;;;;;;8.95;5.72;;;9.00;99.90;;;;;;5070754;28;20590;-48
2023/04/18 06:21:26;;;;;;;9.95;6.68;;;9.30;99.90;;;;;;5064436;28;20064;-48
2023/04/18 06:23:53;;;;;;;8.82;5.85;;;9.30;99.90;;;;;;5069740;28;20045;-48
2023/04/18 06:26:20;;;;;;;9.13;5.70;;;9.40;99.90;;;;;;5070939;28;20555;-49
2023/04/18 06:28:47;;;;;;;8.65;5.97;;;9.60;99.90;;;;;;5066914;28;20041;-47
2023/04/18 06:31:13;;;;;;;14.45;7.30;;;9.70;99.90;;;;;;5060871;28;20080;-48
2023/04/18 06:33:40;;;;;;;15.43;8.95;;;9.80;99.90;;;;;;5070927;28;20048;-48
2023/04/18 06:36:08;;;;;;;22.63;11.52;;;9.70;99.90;;;;;;5064871;28;20059;-48
2023/04/18 06:38:34;;;;;;;;;;;9.50;99.90;;;;;;5070839;28;20405;-48
2023/04/18 06:41:01;;;;;;;26.63;12.88;;;9.40;99.90;;;;;;5070187;28;20448;-49
2023/04/18 06:43:28;;;;;;;31.33;14.93;;;9.40;99.90;;;;;;5055168;28;20462;-48
2023/04/18 06:45:55;;;;;;;26.58;13.52;;;9.30;99.90;;;;;;5067734;28;20041;-47
2023/04/18 06:48:22;;;;;;;19.58;10.85;;;9.40;99.90;;;;;;5070258;28;20071;-48
2023/04/18 06:50:49;;;;;;;23.45;12.18;;;9.50;99.90;;;;;;5071185;28;20456;-47
2023/04/18 06:53:16;;;;;;;28.75;15.13;;;9.50;99.90;;;;;;5064833;28;20045;-48
2023/04/18 06:55:42;;;;;;;33.70;16.92;;;9.70;99.90;;;;;;5070653;28;20075;-48
2023/04/18 06:58:12;;;;;;;34.72;18.27;;;9.70;99.90;;;;;;5069610;28;20052;-48
2023/04/18 07:00:39;;;;;;;36.20;18.00;;;9.80;99.90;;;;;;5070643;28;20110;-48
2023/04/18 07:03:08;;;;;;;30.27;16.15;;;9.80;99.90;;;;;;5059153;28;20361;-48
2023/04/18 07:05:38;;;;;;;33.45;16.38;;;9.80;99.90;;;;;;5070881;28;20120;-48
2023/04/18 07:08:04;;;;;;;28.75;14.85;;;9.70;99.90;;;;;;5070423;28;20044;-47
2023/04/18 07:10:31;;;;;;;28.10;15.50;;;9.60;99.90;;;;;;5055367;28;20044;-48
2023/04/18 07:12:58;;;;;;;28.95;15.25;;;9.40;99.90;;;;;;5071304;28;20120;-48
2023/04/18 07:15:25;;;;;;;27.15;14.70;;;9.30;99.90;;;;;;5073638;28;20090;-49
2023/04/18 07:17:52;;;;;;;32.35;15.30;;;9.30;99.90;;;;;;5070837;28;20086;-48
2023/04/18 07:20:19;;;;;;;29.55;16.45;;;9.30;99.90;;;;;;5062928;28;20041;-48
2023/04/18 07:22:46;;;;;;;27.80;14.98;;;9.30;99.90;;;;;;5069977;28;20067;-50
2023/04/18 07:25:13;;;;;;;31.58;16.48;;;9.30;99.90;;;;;;5072977;28;20044;-49
2023/04/18 07:27:40;;;;;;;24.02;13.18;;;9.30;99.90;;;;;;5074396;28;20055;-48
2023/04/18 07:30:07;;;;;;;29.30;14.45;;;9.40;99.90;;;;;;5058154;28;20032;-48
2023/04/18 07:32:34;;;;;;;24.67;14.05;;;9.40;99.90;;;;;;5068194;28;20067;-48
2023/04/18 07:35:02;;;;;;;24.80;14.75;;;9.40;99.90;;;;;;5053060;28;20045;-48
2023/04/18 07:37:29;;;;;;;27.48;15.00;;;9.50;99.90;;;;;;5054055;28;20070;-48
2023/04/18 07:39:55;;;;;;;30.27;15.27;;;9.60;99.90;;;;;;5060970;28;20090;-48
2023/04/18 07:42:22;;;;;;;33.70;17.92;;;9.60;99.90;;;;;;5061714;28;20048;-48
2023/04/18 07:44:49;;;;;;;34.88;17.98;;;9.60;99.90;;;;;;5053641;28;20520;-48
2023/04/18 07:47:16;;;;;;;34.20;17.27;;;9.70;99.90;;;;;;5054502;28;20033;-48
2023/04/18 07:49:48;;;;;;;31.42;16.95;;;9.80;99.90;;;;;;5073093;28;20067;-48
2023/04/18 07:52:14;;;;;;;31.65;16.90;;;10.00;99.90;;;;;;5073672;28;20080;-48
2023/04/18 07:54:41;;;;;;;27.58;15.95;;;10.20;99.90;;;;;;5069580;28;20045;-50
2023/04/18 07:57:08;;;;;;;31.42;16.92;;;10.30;99.90;;;;;;5062810;28;20064;-48
2023/04/18 07:59:35;;;;;;;30.58;16.30;;;10.60;99.90;;;;;;5073294;28;20106;-48
2023/04/18 08:02:02;;;;;;;29.95;16.95;;;10.70;99.90;;;;;;5066089;28;20083;-48
2023/04/18 08:04:28;;;;;;;29.65;15.95;;;10.90;99.90;;;;;;5073241;28;20045;-49
2023/04/18 08:06:56;;;;;;;29.75;15.95;;;10.90;99.90;;;;;;5073043;28;20102;-50
2023/04/18 08:09:23;;;;;;;26.48;15.98;;;10.80;99.90;;;;;;5057811;28;20103;-48
2023/04/18 08:11:50;;;;;;;25.80;14.32;;;10.80;99.90;;;;;;5069769;28;20081;-49
2023/04/18 08:14:16;;;;;;;28.98;15.70;;;10.90;99.90;;;;;;5073131;28;20070;-48
2023/04/18 08:16:43;;;;;;;31.75;16.50;;;11.10;99.90;;;;;;5073799;28;20125;-49
2023/04/18 08:19:10;;;;;;;27.58;15.77;;;11.40;99.90;;;;;;5064918;28;20045;-48
2023/04/18 08:21:38;;;;;;;26.73;16.35;;;11.50;99.90;;;;;;5073115;28;20039;-47
2023/04/18 08:24:05;;;;;;;27.65;15.38;;;11.60;99.90;;;;;;5072983;28;20162;-48
2023/04/18 08:26:31;;;;;;;29.23;15.70;;;11.70;99.90;;;;;;5072967;28;20041;-48
2023/04/18 08:28:58;;;;;;;28.42;15.55;;;11.90;99.90;;;;;;5059765;28;20439;-48
2023/04/18 08:31:25;;;;;;;27.52;15.13;;;11.90;99.90;;;;;;5072765;28;20049;-48
2023/04/18 08:33:52;;;;;;;27.50;15.05;;;12.00;99.90;;;;;;5060675;28;20060;-48
2023/04/18 08:36:20;;;;;;;26.42;14.77;;;12.00;99.90;;;;;;5064951;28;20816;-47
2023/04/18 08:38:46;;;;;;;24.58;14.98;;;12.00;99.90;;;;;;5038700;28;20069;-49
2023/04/18 08:41:16;;;;;;;23.92;13.95;;;12.00;99.90;;;;;;5042144;28;20091;-48
2023/04/18 08:43:47;;;;;;;24.52;14.23;;;11.90;99.90;;;;;;5046640;28;20068;-49
2023/04/18 08:46:14;;;;;;;26.08;13.90;;;11.90;99.90;;;;;;5052883;28;20049;-48
2023/04/18 08:48:41;;;;;;;27.58;14.55;;;12.10;99.90;;;;;;5051555;28;20133;-48
2023/04/18 08:51:08;;;;;;;22.67;13.15;;;12.20;99.90;;;;;;5051281;28;20494;-48
2023/04/18 08:53:34;;;;;;;20.23;12.93;;;12.30;99.90;;;;;;5072585;28;20079;-48
2023/04/18 08:56:01;;;;;;;25.38;13.75;;;12.50;99.90;;;;;;5072136;28;20091;-48
2023/04/18 08:58:32;;;;;;;21.98;13.98;;;12.60;99.90;;;;;;5068571;28;20044;-48
2023/04/18 09:00:59;;;;;;;26.60;13.27;;;12.90;99.90;;;;;;5060578;28;20044;-48
2023/04/18 09:03:41;;;;;;;21.73;12.43;;;13.10;99.90;;;;;;5072445;28;20049;-48
2023/04/18 09:06:11;;;;;;;18.35;11.23;;;13.20;99.90;;;;;;5072365;28;20111;-48
2023/04/18 09:08:42;;;;;;;21.45;12.52;;;13.20;99.90;;;;;;5061545;28;20051;-48
2023/04/18 09:11:24;;;;;;;21.75;12.27;;;13.20;99.90;;;;;;5071255;28;20124;-48
2023/04/18 09:18:09;;;;;;;16.00;9.70;;;12.90;99.90;;;;;;4953632;28;20133;-46
2023/04/18 09:20:39;;;;;;;15.45;9.45;;;13.00;99.90;;;;;;4988679;28;20081;-46
2023/04/18 09:23:13;;;;;;;15.23;9.23;;;13.00;99.90;;;;;;5047513;28;20056;-46
2023/04/18 09:25:40;;;;;;;14.43;8.95;;;12.90;99.90;;;;;;5075957;28;20053;-46
2023/04/18 09:28:26;;;;;;;15.98;10.43;;;12.80;99.90;;;;;;5071666;28;20447;-48
2023/04/18 09:31:15;;;;;;;17.08;9.82;;;12.70;99.90;;;;;;5071523;28;20385;-45
2023/04/18 09:33:55;;;;;;;16.00;9.88;;;12.50;99.90;;;;;;5070364;28;20048;-47
2023/04/18 09:36:25;;;;;;;16.35;9.48;;;12.60;99.90;;;;;;5071982;28;20070;-46
2023/04/18 09:38:53;;;;;;;16.13;9.98;;;12.60;99.90;;;;;;5071247;28;20052;-46
2023/04/18 09:41:22;;;;;;;16.25;10.55;;;12.70;99.90;;;;;;5071732;28;20127;-46
2023/04/18 09:43:50;;;;;;;19.05;10.95;;;12.50;99.90;;;;;;5075266;28;20044;-46
2023/04/18 09:46:17;;;;;;;12.93;9.10;;;12.60;99.90;;;;;;5095665;28;20036;-48
2023/04/18 09:48:44;;;;;;;18.02;11.00;;;12.50;99.90;;;;;;5089617;28;20041;-48
2023/04/18 09:51:15;;;;;;;14.75;10.05;;;12.60;99.90;;;;;;5071306;28;20048;-47
2023/04/18 09:53:43;;;;;;;17.70;10.57;;;12.70;99.90;;;;;;5070469;28;20036;-47
2023/04/18 09:56:24;;;;;;;15.90;10.32;;;12.80;99.90;;;;;;5071526;28;20075;-49
2023/04/18 09:58:58;;;;;;;18.73;10.77;;;13.00;99.90;;;;;;5058702;28;20048;-48
2023/04/18 10:01:28;;;;;;;17.27;10.38;;;13.00;99.90;;;;;;5097257;28;20126;-48
2023/04/18 10:03:59;;;;;;;16.67;10.10;;;13.30;99.90;;;;;;5111641;28;20105;-49
2023/04/18 10:06:27;;;;;;;16.35;9.25;;;13.50;99.90;;;;;;5104308;28;20037;-48
2023/04/18 10:08:54;;;;;;;15.52;9.05;;;13.60;99.90;;;;;;5070890;28;20489;-47
2023/04/18 10:11:22;;;;;;;;;;;13.50;99.90;;;;;;5071160;28;20068;-47
2023/04/18 10:13:54;;;;;;;14.45;9.30;;;13.60;99.90;;;;;;5071329;28;19955;-46
2023/04/18 10:16:21;;;;;;;15.77;9.95;;;13.70;99.90;;;;;;5079468;28;20272;-47
2023/04/18 10:18:49;;;;;;;15.52;8.98;;;13.60;99.90;;;;;;5075416;28;20048;-47
2023/04/18 10:21:16;;;;;;;15.23;8.23;;;13.60;99.90;;;;;;5070900;28;20044;-48
2023/04/18 10:23:44;;;;;;;14.52;8.95;;;13.60;99.90;;;;;;5070896;28;20052;-47
2023/04/18 10:26:11;;;;;;;14.45;8.68;;;13.40;99.90;;;;;;5073532;28;20044;-47
2023/04/18 10:28:57;;;;;;;13.75;8.93;;;13.00;99.90;;;;;;5072743;28;20033;-48
2023/04/18 10:31:26;;;;;;;15.90;8.68;;;13.00;99.90;;;;;;5070913;28;20040;-47
2023/04/18 10:33:56;;;;;;;12.57;8.38;;;13.10;99.90;;;;;;5070999;28;20131;-47
2023/04/18 10:36:31;;;;;;;;;;;13.10;99.90;;;;;;5076095;28;20049;-48
2023/04/18 10:39:19;;;;;;;13.43;8.48;;;13.10;99.90;;;;;;5070572;28;20400;-47
2023/04/18 10:41:50;;;;;;;14.10;8.50;;;13.00;99.90;;;;;;5070333;28;20049;-47
2023/04/18 10:44:18;;;;;;;13.13;8.52;;;12.90;99.90;;;;;;5070702;28;20127;-47
2023/04/18 10:46:51;;;;;;;14.40;9.20;;;12.80;99.90;;;;;;5071329;28;20131;-47
2023/04/18 10:49:20;;;;;;;12.55;7.90;;;12.70;99.90;;;;;;5115342;28;20385;-46
2023/04/18 10:51:54;;;;;;;11.75;8.25;;;12.60;99.90;;;;;;5080292;28;20041;-47
2023/04/18 10:54:53;;;;;;;15.57;9.00;;;12.70;99.90;;;;;;5086868;28;20040;-47
2023/04/18 10:57:20;;;;;;;;;;;12.60;99.90;;;;;;5094764;28;20044;-47
2023/04/18 10:59:51;;;;;;;13.20;8.43;;;12.60;99.90;;;;;;5084036;28;20020;-47
2023/04/18 11:02:28;;;;;;;14.23;9.10;;;12.60;99.90;;;;;;5098895;28;20039;-46
2023/04/18 11:05:01;;;;;;;16.70;8.70;;;12.70;99.90;;;;;;5087927;28;20420;-47
2023/04/18 11:07:47;;;;;;;13.82;8.35;;;12.80;99.90;;;;;;5074355;28;20037;-47
2023/04/18 11:10:20;;;;;;;13.45;8.38;;;12.90;99.90;;;;;;5092837;28;20254;-47
2023/04/18 11:12:47;;;;;;;13.85;8.32;;;13.00;99.90;;;;;;5095221;28;20036;-48
2023/04/18 11:15:22;;;;;;;15.90;9.50;;;13.00;99.90;;;;;;5087937;28;20086;-46
2023/04/18 11:18:00;;;;;;;14.18;8.75;;;13.10;99.90;;;;;;5090953;28;20126;-46
2023/04/18 11:20:28;;;;;;;14.45;7.85;;;13.20;99.90;;;;;;5087812;28;20423;-47
2023/04/18 11:22:56;;;;;;;11.70;6.90;;;13.20;99.90;;;;;;5082817;28;20040;-46
2023/04/18 11:25:26;;;;;;;12.20;7.72;;;13.20;99.90;;;;;;5094445;28;20096;-47
2023/04/18 11:27:55;;;;;;;14.43;7.85;;;13.20;99.90;;;;;;5093347;28;20546;-47
2023/04/18 11:30:22;;;;;;;13.25;7.25;;;13.30;99.90;;;;;;5089729;28;20408;-48
2023/04/18 11:32:50;;;;;;;13.00;7.43;;;13.70;99.90;;;;;;5072930;28;20044;-47
2023/04/18 11:35:17;;;;;;;11.32;6.55;;;13.90;99.90;;;;;;5097695;28;20390;-47
2023/04/18 11:37:44;;;;;;;11.75;7.88;;;14.30;99.90;;;;;;5114223;28;20142;-48
2023/04/18 11:40:12;;;;;;;10.82;6.30;;;14.70;99.90;;;;;;5107113;28;20106;-47
2023/04/18 11:42:41;;;;;;;9.55;6.03;;;14.90;99.90;;;;;;5088942;28;20040;-47
2023/04/18 11:45:16;;;;;;;9.82;5.72;;;15.00;99.90;;;;;;5093720;28;20400;-47
2023/04/18 11:47:45;;;;;;;12.70;6.82;;;15.10;99.90;;;;;;5094029;28;20075;-48
2023/04/18 11:50:12;;;;;;;12.07;6.80;;;15.00;99.90;;;;;;5085876;28;20048;-47
2023/04/18 11:52:41;;;;;;;11.55;6.53;;;14.80;99.90;;;;;;5085698;28;20115;-48
2023/04/18 11:55:17;;;;;;;8.23;5.20;;;14.70;99.90;;;;;;5066244;28;20036;-47
2023/04/18 11:58:00;;;;;;;6.65;4.80;;;14.60;99.90;;;;;;5073250;28;20048;-52
2023/04/18 12:00:31;;;;;;;8.07;5.75;;;14.50;99.90;;;;;;5072631;28;20114;-47
2023/04/18 12:03:00;;;;;;;11.30;6.50;;;14.20;99.90;;;;;;5073662;28;20123;-47
2023/04/18 12:05:33;;;;;;;9.95;6.82;;;14.20;99.90;;;;;;5073368;28;20036;-46
2023/04/18 12:08:17;;;;;;;10.50;7.00;;;13.80;99.90;;;;;;5073088;28;20505;-47
2023/04/18 12:10:49;;;;;;;9.80;6.30;;;13.70;99.90;;;;;;5073857;28;20099;-47
2023/04/18 12:13:16;;;;;;;10.85;6.57;;;13.80;99.90;;;;;;5076261;28;20089;-46
2023/04/18 12:15:45;;;;;;;10.38;6.13;;;13.70;99.90;;;;;;5081361;28;20496;-46
2023/04/18 12:18:14;;;;;;;14.25;6.97;;;13.70;99.90;;;;;;5072285;28;20102;-46
2023/04/18 12:20:48;;;;;;;10.60;5.95;;;13.90;99.90;;;;;;5087922;28;20270;-47
2023/04/18 12:23:28;;;;;;;9.52;5.90;;;14.00;99.90;;;;;;5093207;28;20040;-47
2023/04/18 12:26:03;;;;;;;9.85;5.80;;;14.00;99.90;;;;;;5089910;28;20075;-47
2023/04/18 12:28:30;;;;;;;8.38;5.13;;;13.90;99.90;;;;;;5084405;28;20032;-48
2023/04/18 12:30:57;;;;;;;8.95;5.55;;;13.80;99.90;;;;;;5090761;28;20032;-48
2023/04/18 12:33:25;;;;;;;12.75;6.43;;;13.80;99.90;;;;;;5072786;28;20074;-47
2023/04/18 12:35:52;;;;;;;9.00;5.63;;;13.70;99.90;;;;;;5073724;28;20102;-47
2023/04/18 12:38:21;;;;;;;8.02;4.93;;;13.80;99.90;;;;;;5086918;28;20048;-47
2023/04/18 12:40:48;;;;;;;7.32;5.25;;;13.60;99.90;;;;;;5089398;28;20072;-47
2023/04/18 12:43:15;;;;;;;13.38;5.32;;;14.00;99.90;;;;;;5086676;28;20075;-48
2023/04/18 12:45:42;;;;;;;;;;;14.40;99.90;;;;;;5080165;28;20097;-48
2023/04/18 12:48:09;;;;;;;7.68;4.85;;;14.50;99.90;;;;;;5092416;28;19920;-46
2023/04/18 12:50:36;;;;;;;9.05;5.50;;;14.30;99.90;;;;;;5093005;28;20045;-49
2023/04/18 12:53:04;;;;;;;7.32;4.88;;;14.30;99.90;;;;;;5080235;28;20040;-47
2023/04/18 12:55:31;;;;;;;7.28;4.70;;;14.50;99.90;;;;;;5072745;28;20417;-46
2023/04/18 12:57:58;;;;;;;5.07;3.95;;;15.00;99.90;;;;;;5072168;28;20173;-47
2023/04/18 13:00:30;;;;;;;5.35;3.78;;;15.20;99.90;;;;;;5071363;28;20132;-47